Time,TemperatureF,DewpointF,PressureIn,WindDirection,WindDirectionDegrees,WindSpeedMPH,WindSpeedGustMPH,Humidity,HourlyPrecipIn,Conditions,Clouds,dailyrainin,SoftwareType,DateUTC
2013-01-17 00:04:00,36.0,34.0,30.09,West,269,1.0,-999.0,93,-99.99,,,-99.99,,2013-01-17 05:04:00,
2013-01-17 00:12:00,36.0,34.0,30.09,West,269,1.0,-999.0,93,-99.99,,,-99.99,,2013-01-17 05:12:00,
2013-01-17 00:22:00,36.0,34.0,30.10,West,269,0.0,-999.0,93,-99.99,,,-99.99,,2013-01-17 05:22:00,
2013-01-17 00:33:00,36.0,34.0,30.11,West,269,0.0,-999.0,93,-99.99,,,-99.99,,2013-01-17 05:33:00,
2013-01-17 00:42:00,36.0,34.0,30.11,West,269,0.0,-999.0,93,-99.99,,,-99.99,,2013-01-17 05:42:00,
2013-01-17 00:53:00,36.0,34.0,30.10,West,269,0.0,-999.0,93,-99.99,,,-99.99,,2013-01-17 05:53:00,
2013-01-17 01:02:00,36.0,34.0,30.09,West,269,0.0,-999.0,93,-99.99,,,-99.99,,2013-01-17 06:02:00,
2013-01-17 01:12:00,36.0,34.0,30.10,West,269,0.0,-999.0,93,-99.99,,,-99.99,,2013-01-17 06:12:00,
2013-01-17 01:22:00,36.0,34.0,30.10,West,269,0.0,-999.0,93,-99.99,,,-99.99,,2013-01-17 06:22:00,
2013-01-17 01:32:00,36.0,34.0,30.09,West,269,0.0,-999.0,93,-99.99,,,-99.99,,2013-01-17 06:32:00,
2013-01-17 01:42:00,36.0,34.0,30.09,West,269,0.0,-999.0,93,-99.99,,,-99.99,,2013-01-17 06:42:00,
2013-01-17 01:53:00,36.0,34.0,30.12,West,269,0.0,-999.0,93,-99.99,,,-99.99,,2013-01-17 06:53:00,
2013-01-17 02:02:00,36.0,34.0,30.11,West,269,0.0,-999.0,93,-99.99,,,-99.99,,2013-01-17 07:02:00,
2013-01-17 02:12:00,36.0,34.0,30.11,West,269,0.0,-999.0,93,-99.99,,,-99.99,,2013-01-17 07:12:00,
2013-01-17 02:22:00,36.0,34.0,30.13,West,269,0.0,-999.0,93,-99.99,,,-99.99,,2013-01-17 07:22:00,
2013-01-17 02:33:00,36.0,34.0,30.12,West,269,0.0,-999.0,93,-99.99,,,-99.99,,2013-01-17 07:33:00,
2013-01-17 02:42:00,36.0,34.0,30.12,West,269,0.0,-999.0,93,-99.99,,,-99.99,,2013-01-17 07:42:00,
2013-01-17 02:53:00,36.0,34.0,30.11,West,269,0.0,-999.0,93,-99.99,,,-99.99,,2013-01-17 07:53:00,
2013-01-17 03:02:00,36.0,34.0,30.11,West,269,0.0,-999.0,93,-99.99,,,-99.99,,2013-01-17 08:02:00,
2013-01-17 03:12:00,36.0,34.0,30.11,West,269,0.0,-999.0,93,-99.99,,,-99.99,,2013-01-17 08:12:00,
2013-01-17 03:22:00,35.0,33.0,30.12,West,269,0.0,-999.0,93,-99.99,,,-99.99,,2013-01-17 08:22:00,
2013-01-17 03:32:00,35.0,33.0,30.12,West,269,0.0,-999.0,93,-99.99,,,-99.99,,2013-01-17 08:32:00,
2013-01-17 03:43:00,35.0,33.0,30.12,West,269,0.0,-999.0,93,-99.99,,,-99.99,,2013-01-17 08:43:00,
2013-01-17 03:53:00,35.0,33.0,30.11,West,269,0.0,-999.0,93,-99.99,,,-99.99,,2013-01-17 08:53:00,
2013-01-17 04:02:00,35.0,33.0,30.11,West,269,0.0,-999.0,93,-99.99,,,-99.99,,2013-01-17 09:02:00,
2013-01-17 04:12:00,35.0,33.0,30.11,West,269,0.0,-999.0,93,-99.99,,,-99.99,,2013-01-17 09:12:00,
2013-01-17 04:22:00,35.0,33.0,30.10,West,269,0.0,-999.0,93,-99.99,,,-99.99,,2013-01-17 09:22:00,
2013-01-17 04:33:00,35.0,32.0,30.10,West,269,1.0,-999.0,89,-99.99,,,-99.99,,2013-01-17 09:33:00,
2013-01-17 04:42:00,35.0,32.0,30.10,West,269,1.0,-999.0,89,-99.99,,,-99.99,,2013-01-17 09:42:00,
2013-01-17 04:53:00,35.0,32.0,30.10,West,269,1.0,-999.0,89,-99.99,,,-99.99,,2013-01-17 09:53:00,
2013-01-17 05:02:00,34.0,31.0,30.11,West,269,0.0,-999.0,87,-99.99,,,-99.99,,2013-01-17 10:02:00,
2013-01-17 05:12:00,34.0,31.0,30.11,West,269,0.0,-999.0,87,-99.99,,,-99.99,,2013-01-17 10:12:00,
2013-01-17 05:22:00,34.0,31.0,30.11,West,269,0.0,-999.0,88,-99.99,,,-99.99,,2013-01-17 10:22:00,
2013-01-17 05:32:00,34.0,31.0,30.10,West,269,0.0,-999.0,90,-99.99,,,-99.99,,2013-01-17 10:32:00,
2013-01-17 05:42:00,34.0,31.0,30.10,West,269,0.0,-999.0,90,-99.99,,,-99.99,,2013-01-17 10:42:00,
2013-01-17 05:53:00,34.0,31.0,30.13,West,269,0.0,-999.0,90,-99.99,,,-99.99,,2013-01-17 10:53:00,
2013-01-17 06:03:00,34.0,31.0,30.11,West,269,0.0,-999.0,90,-99.99,,,-99.99,,2013-01-17 11:03:00,
2013-01-17 06:12:00,34.0,31.0,30.11,West,269,0.0,-999.0,90,-99.99,,,-99.99,,2013-01-17 11:12:00,
2013-01-17 06:22:00,34.0,32.0,30.09,West,269,0.0,-999.0,91,-99.99,,,-99.99,,2013-01-17 11:22:00,
2013-01-17 06:33:00,34.0,31.0,30.12,West,269,0.0,-999.0,90,-99.99,,,-99.99,,2013-01-17 11:33:00,
2013-01-17 06:43:00,34.0,31.0,30.12,West,269,0.0,-999.0,90,-99.99,,,-99.99,,2013-01-17 11:43:00,
2013-01-17 06:53:00,34.0,32.0,30.11,West,269,0.0,-999.0,91,-99.99,,,-99.99,,2013-01-17 11:53:00,
2013-01-17 07:02:00,34.0,31.0,30.12,West,269,0.0,-999.0,90,-99.99,,,-99.99,,2013-01-17 12:02:00,
2013-01-17 07:12:00,34.0,31.0,30.12,West,269,0.0,-999.0,90,-99.99,,,-99.99,,2013-01-17 12:12:00,
2013-01-17 07:23:00,34.0,32.0,30.11,West,269,0.0,-999.0,91,-99.99,,,-99.99,,2013-01-17 12:23:00,
2013-01-17 07:33:00,33.0,31.0,30.11,West,270,1.0,-999.0,91,-99.99,,,-99.99,,2013-01-17 12:33:00,
2013-01-17 07:43:00,33.0,31.0,30.11,West,270,1.0,-999.0,91,-99.99,,,-99.99,,2013-01-17 12:43:00,
2013-01-17 07:53:00,33.0,30.0,30.12,West,270,0.0,-999.0,90,-99.99,,,-99.99,,2013-01-17 12:53:00,
2013-01-17 08:03:00,33.0,30.0,30.13,West,270,0.0,-999.0,90,-99.99,,,-99.99,,2013-01-17 13:03:00,
2013-01-17 08:12:00,33.0,30.0,30.13,West,270,0.0,-999.0,90,-99.99,,,-99.99,,2013-01-17 13:12:00,
2013-01-17 08:23:00,33.0,30.0,30.13,West,270,0.0,-999.0,89,-99.99,,,-99.99,,2013-01-17 13:23:00,
2013-01-17 08:33:00,33.0,30.0,30.11,West,270,1.0,-999.0,89,-99.99,,,-99.99,,2013-01-17 13:33:00,
2013-01-17 08:43:00,33.0,30.0,30.11,West,270,1.0,-999.0,89,-99.99,,,-99.99,,2013-01-17 13:43:00,
2013-01-17 08:53:00,33.0,30.0,30.13,West,271,1.0,-999.0,89,-99.99,,,-99.99,,2013-01-17 13:53:00,
2013-01-17 09:03:00,33.0,30.0,30.14,West,271,0.0,-999.0,88,-99.99,,,-99.99,,2013-01-17 14:03:00,
2013-01-17 09:12:00,33.0,30.0,30.14,West,271,0.0,-999.0,88,-99.99,,,-99.99,,2013-01-17 14:12:00,
2013-01-17 09:23:00,33.0,30.0,30.14,West,271,0.0,-999.0,89,-99.99,,,-99.99,,2013-01-17 14:23:00,
2013-01-17 09:33:00,33.0,30.0,30.13,NNW,334,2.0,-999.0,89,-99.99,,,-99.99,,2013-01-17 14:33:00,
2013-01-17 09:43:00,33.0,30.0,30.13,NNW,334,2.0,-999.0,89,-99.99,,,-99.99,,2013-01-17 14:43:00,
2013-01-17 09:53:00,33.0,30.0,30.16,NNW,334,1.0,-999.0,89,-99.99,,,-99.99,,2013-01-17 14:53:00,
2013-01-17 10:03:00,34.0,31.0,30.18,NNW,334,1.0,-999.0,88,-99.99,,,-99.99,,2013-01-17 15:03:00,
2013-01-17 10:12:00,34.0,31.0,30.18,NNW,334,1.0,-999.0,88,-99.99,,,-99.99,,2013-01-17 15:12:00,
2013-01-17 10:23:00,34.0,31.0,30.17,NNW,334,2.0,-999.0,87,-99.99,,,-99.99,,2013-01-17 15:23:00,
2013-01-17 10:33:00,34.0,30.0,30.17,NE,42,2.0,-999.0,86,-99.99,,,-99.99,,2013-01-17 15:33:00,
2013-01-17 10:43:00,34.0,30.0,30.17,NE,42,2.0,-999.0,86,-99.99,,,-99.99,,2013-01-17 15:43:00,
2013-01-17 10:53:00,34.0,30.0,30.14,NE,45,4.0,-999.0,86,-99.99,,,-99.99,,2013-01-17 15:53:00,
2013-01-17 11:03:00,34.0,30.0,30.10,North,360,9.0,-999.0,86,-99.99,,,-99.99,,2013-01-17 16:03:00,
2013-01-17 11:12:00,34.0,30.0,30.10,North,360,9.0,-999.0,86,-99.99,,,-99.99,,2013-01-17 16:12:00,
2013-01-17 11:23:00,34.0,30.0,30.13,NE,47,3.0,-999.0,84,-99.99,,,-99.99,,2013-01-17 16:23:00,
2013-01-17 11:33:00,34.0,30.0,30.14,NE,47,3.0,-999.0,84,-99.99,,,-99.99,,2013-01-17 16:33:00,
2013-01-17 11:43:00,34.0,30.0,30.14,NE,47,3.0,-999.0,84,-99.99,,,-99.99,,2013-01-17 16:43:00,
2013-01-17 11:53:00,34.0,29.0,30.14,NE,38,3.0,-999.0,83,-99.99,,,-99.99,,2013-01-17 16:53:00,
2013-01-17 12:03:00,35.0,30.0,30.14,NE,51,4.0,-999.0,83,-99.99,,,-99.99,,2013-01-17 17:03:00,
2013-01-17 12:13:00,35.0,30.0,30.14,NE,51,4.0,-999.0,83,-99.99,,,-99.99,,2013-01-17 17:13:00,
2013-01-17 12:23:00,35.0,30.0,30.14,NNE,16,5.0,-999.0,82,-99.99,,,-99.99,,2013-01-17 17:23:00,
2013-01-17 12:33:00,35.0,30.0,30.12,NNE,32,4.0,-999.0,82,-99.99,,,-99.99,,2013-01-17 17:33:00,
2013-01-17 12:43:00,35.0,30.0,30.12,NNE,32,4.0,-999.0,82,-99.99,,,-99.99,,2013-01-17 17:43:00,
2013-01-17 12:54:00,35.0,30.0,30.12,NE,48,2.0,-999.0,82,-99.99,,,-99.99,,2013-01-17 17:54:00,
2013-01-17 13:04:00,35.0,30.0,30.11,NE,53,3.0,-999.0,83,-99.99,,,-99.99,,2013-01-17 18:04:00,
2013-01-17 13:13:00,35.0,30.0,30.11,NE,53,3.0,-999.0,83,-99.99,,,-99.99,,2013-01-17 18:13:00,
2013-01-17 13:23:00,35.0,30.0,30.09,ENE,78,3.0,-999.0,83,-99.99,,,-99.99,,2013-01-17 18:23:00,
2013-01-17 13:33:00,35.0,30.0,30.09,East,80,3.0,-999.0,82,-99.99,,,-99.99,,2013-01-17 18:33:00,
2013-01-17 13:43:00,35.0,30.0,30.09,East,80,3.0,-999.0,82,-99.99,,,-99.99,,2013-01-17 18:43:00,
2013-01-17 13:53:00,35.0,30.0,30.10,NE,48,1.0,-999.0,83,-99.99,,,-99.99,,2013-01-17 18:53:00,
2013-01-17 14:03:00,35.0,30.0,30.09,NE,51,2.0,-999.0,83,-99.99,,,-99.99,,2013-01-17 19:03:00,
2013-01-17 14:13:00,35.0,30.0,30.09,NE,51,2.0,-999.0,83,-99.99,,,-99.99,,2013-01-17 19:13:00,
2013-01-17 14:23:00,36.0,32.0,30.09,NNE,33,2.0,-999.0,84,-99.99,,,-99.99,,2013-01-17 19:23:00,
2013-01-17 14:33:00,37.0,32.0,30.09,NNE,30,2.0,-999.0,83,-99.99,,,-99.99,,2013-01-17 19:33:00,
2013-01-17 14:43:00,37.0,32.0,30.09,NNE,30,2.0,-999.0,83,-99.99,,,-99.99,,2013-01-17 19:43:00,
2013-01-17 14:53:00,36.0,31.0,30.08,NE,45,5.0,-999.0,81,-99.99,,,-99.99,,2013-01-17 19:53:00,
2013-01-17 15:03:00,37.0,32.0,30.08,NE,44,3.0,-999.0,82,-99.99,,,-99.99,,2013-01-17 20:03:00,
2013-01-17 15:12:00,37.0,32.0,30.08,NE,44,3.0,-999.0,82,-99.99,,,-99.99,,2013-01-17 20:12:00,
2013-01-17 15:23:00,37.0,32.0,30.06,NE,36,5.0,-999.0,82,-99.99,,,-99.99,,2013-01-17 20:23:00,
2013-01-17 15:33:00,37.0,32.0,30.08,NE,50,4.0,-999.0,81,-99.99,,,-99.99,,2013-01-17 20:33:00,
2013-01-17 15:43:00,37.0,32.0,30.08,NE,50,4.0,-999.0,81,-99.99,,,-99.99,,2013-01-17 20:43:00,
2013-01-17 15:54:00,37.0,31.0,30.09,ENE,69,5.0,-999.0,80,-99.99,,,-99.99,,2013-01-17 20:54:00,
2013-01-17 16:03:00,37.0,32.0,30.08,ENE,75,5.0,-999.0,81,-99.99,,,-99.99,,2013-01-17 21:03:00,
2013-01-17 16:13:00,37.0,32.0,30.08,ENE,75,5.0,-999.0,81,-99.99,,,-99.99,,2013-01-17 21:13:00,
2013-01-17 16:23:00,37.0,32.0,30.12,NE,51,4.0,-999.0,81,-99.99,,,-99.99,,2013-01-17 21:23:00,
2013-01-17 16:34:00,37.0,32.0,30.13,North,5,2.0,-999.0,81,-99.99,,,-99.99,,2013-01-17 21:34:00,
2013-01-17 16:43:00,37.0,32.0,30.13,North,5,2.0,-999.0,81,-99.99,,,-99.99,,2013-01-17 21:43:00,
2013-01-17 16:53:00,37.0,32.0,30.13,NNE,26,4.0,-999.0,81,-99.99,,,-99.99,,2013-01-17 21:53:00,
2013-01-17 17:03:00,37.0,32.0,30.15,NNE,30,3.0,-999.0,81,-99.99,,,-99.99,,2013-01-17 22:03:00,
2013-01-17 17:12:00,37.0,32.0,30.15,NNE,30,3.0,-999.0,81,-99.99,,,-99.99,,2013-01-17 22:12:00,
2013-01-17 17:23:00,37.0,32.0,30.17,NNE,29,2.0,-999.0,81,-99.99,,,-99.99,,2013-01-17 22:23:00,
2013-01-17 17:33:00,37.0,32.0,30.19,North,360,3.0,-999.0,81,-99.99,,,-99.99,,2013-01-17 22:33:00,
2013-01-17 17:43:00,37.0,32.0,30.19,North,360,3.0,-999.0,81,-99.99,,,-99.99,,2013-01-17 22:43:00,
2013-01-17 17:53:00,37.0,32.0,30.18,North,360,3.0,-999.0,81,-99.99,,,-99.99,,2013-01-17 22:53:00,
2013-01-17 18:03:00,36.0,31.0,30.19,North,5,4.0,-999.0,82,-99.99,,,-99.99,,2013-01-17 23:03:00,
2013-01-17 18:12:00,36.0,31.0,30.19,North,5,4.0,-999.0,82,-99.99,,,-99.99,,2013-01-17 23:12:00,
2013-01-17 18:23:00,36.0,31.0,30.19,North,360,2.0,-999.0,82,-99.99,,,-99.99,,2013-01-17 23:23:00,
2013-01-17 18:33:00,36.0,31.0,30.20,North,10,2.0,-999.0,82,-99.99,,,-99.99,,2013-01-17 23:33:00,
2013-01-17 18:43:00,36.0,31.0,30.20,North,10,2.0,-999.0,82,-99.99,,,-99.99,,2013-01-17 23:43:00,
2013-01-17 18:53:00,35.0,30.0,30.21,NNE,13,1.0,-999.0,83,-99.99,,,-99.99,,2013-01-17 23:53:00,
2013-01-17 19:03:00,35.0,30.0,30.21,NNE,13,1.0,-999.0,83,-99.99,,,-99.99,,2013-01-18 00:03:00,
2013-01-17 19:12:00,35.0,30.0,30.21,NNE,13,1.0,-999.0,83,-99.99,,,-99.99,,2013-01-18 00:12:00,
2013-01-17 19:23:00,35.0,31.0,30.22,NNE,12,0.0,-999.0,85,-99.99,,,-99.99,,2013-01-18 00:23:00,
2013-01-17 19:33:00,35.0,31.0,30.22,NNE,12,0.0,-999.0,85,-99.99,,,-99.99,,2013-01-18 00:33:00,
2013-01-17 19:43:00,35.0,31.0,30.22,NNE,12,0.0,-999.0,85,-99.99,,,-99.99,,2013-01-18 00:43:00,
2013-01-17 19:53:00,32.0,29.0,30.24,NNE,12,0.0,-999.0,87,-99.99,,,-99.99,,2013-01-18 00:53:00,
2013-01-17 20:03:00,31.0,28.0,30.24,NNE,12,0.0,-999.0,88,-99.99,,,-99.99,,2013-01-18 01:03:00,
2013-01-17 20:13:00,31.0,28.0,30.24,NNE,12,0.0,-999.0,88,-99.99,,,-99.99,,2013-01-18 01:13:00,
2013-01-17 20:23:00,31.0,28.0,30.25,NNE,12,0.0,-999.0,90,-99.99,,,-99.99,,2013-01-18 01:23:00,
2013-01-17 20:33:00,30.0,27.0,30.26,NNE,12,0.0,-999.0,90,-99.99,,,-99.99,,2013-01-18 01:33:00,
2013-01-17 20:43:00,30.0,27.0,30.26,NNE,12,0.0,-999.0,90,-99.99,,,-99.99,,2013-01-18 01:43:00,
2013-01-17 20:53:00,30.0,28.0,30.26,NNE,12,0.0,-999.0,91,-99.99,,,-99.99,,2013-01-18 01:53:00,
2013-01-17 21:03:00,30.0,28.0,30.27,NNE,12,0.0,-999.0,91,-99.99,,,-99.99,,2013-01-18 02:03:00,
2013-01-17 21:12:00,30.0,28.0,30.27,NNE,12,0.0,-999.0,91,-99.99,,,-99.99,,2013-01-18 02:12:00,
2013-01-17 21:23:00,29.0,27.0,30.28,NNE,12,0.0,-999.0,92,-99.99,,,-99.99,,2013-01-18 02:23:00,
2013-01-17 21:33:00,29.0,27.0,30.29,NNE,12,0.0,-999.0,92,-99.99,,,-99.99,,2013-01-18 02:33:00,
2013-01-17 21:43:00,29.0,27.0,30.29,NNE,12,0.0,-999.0,92,-99.99,,,-99.99,,2013-01-18 02:43:00,
2013-01-17 21:53:00,29.0,27.0,30.30,NNE,12,1.0,-999.0,92,-99.99,,,-99.99,,2013-01-18 02:53:00,
2013-01-17 22:02:00,29.0,27.0,30.32,NNE,12,0.0,-999.0,92,-99.99,,,-99.99,,2013-01-18 03:02:00,
2013-01-17 22:12:00,29.0,27.0,30.32,NNE,12,0.0,-999.0,92,-99.99,,,-99.99,,2013-01-18 03:12:00,
2013-01-17 22:23:00,30.0,28.0,30.33,NW,305,2.0,-999.0,93,-99.99,,,-99.99,,2013-01-18 03:23:00,
2013-01-17 22:33:00,30.0,28.0,30.33,NW,305,2.0,-999.0,93,-99.99,,,-99.99,,2013-01-18 03:33:00,
2013-01-17 22:42:00,30.0,28.0,30.33,NW,305,2.0,-999.0,93,-99.99,,,-99.99,,2013-01-18 03:42:00,
2013-01-17 22:52:00,30.0,28.0,30.33,NW,305,1.0,-999.0,93,-99.99,,,-99.99,,2013-01-18 03:52:00,
2013-01-17 23:02:00,30.0,28.0,30.33,NW,305,1.0,-999.0,93,-99.99,,,-99.99,,2013-01-18 04:02:00,
2013-01-17 23:12:00,30.0,28.0,30.33,NW,305,1.0,-999.0,93,-99.99,,,-99.99,,2013-01-18 04:12:00,
2013-01-17 23:22:00,31.0,29.0,30.33,NW,305,2.0,-999.0,92,-99.99,,,-99.99,,2013-01-18 04:22:00,
2013-01-17 23:33:00,31.0,29.0,30.34,NW,305,1.0,-999.0,92,-99.99,,,-99.99,,2013-01-18 04:33:00,
2013-01-17 23:42:00,31.0,29.0,30.34,NW,305,1.0,-999.0,92,-99.99,,,-99.99,,2013-01-18 04:42:00,
2013-01-17 23:52:00,31.0,29.0,30.34,NW,305,1.0,-999.0,91,-99.99,,,-99.99,,2013-01-18 04:52:00,